METAR UND TAF INFORMATION

METAR FOR LRIA
ADDS - METARS form results

(0458 UTC 26 June 2022)
Data provider http://aviationweather.gov/metar/data/
 
METAR text: LRIA 260430Z 24003KT CAVOK 18/15 Q1016
Conditions at: LRIA (IASI , RO) observed 0430 UTC 26 June 2022
Temperature: 18.0°C (64°F)
Dewpoint: 15.0°C (59°F) [RH = 83%]
Pressure (altimeter): 30.00 inches Hg (1016.0 mb)
Winds: from the WSW (240 degrees) at 3 MPH (3 knots; 1.5 m/s)
Visibility: 6 or more miles (10+ km)
Ceiling: ceiling and visibility are OK
Clouds: unknown
Weather: no significant weather observed at this time

METAR text: LRIA 260400Z 26004KT CAVOK 17/14 Q1016
Conditions at: LRIA (IASI , RO) observed 0400 UTC 26 June 2022
Temperature: 17.0°C (63°F)
Dewpoint: 14.0°C (57°F) [RH = 82%]
Pressure (altimeter): 30.00 inches Hg (1016.0 mb)
Winds: from the W (260 degrees) at 5 MPH (4 knots; 2.1 m/s)
Visibility: 6 or more miles (10+ km)
Ceiling: ceiling and visibility are OK
Clouds: unknown
Weather: no significant weather observed at this time

Forecast for: LRIA (IASI , RO)
Text: TAF LRIA 260200Z 2603/2612 VRB04KT CAVOK
Forecast period: 0300 to 0700 UTC 26 June 2022
Forecast type: FROM: standard forecast or significant change
Winds: variable direction winds at 5 MPH (4 knots; 2.1 m/s)
Visibility: 6 or more miles (10+ km)
Ceiling: unknown
Clouds: missing
Weather: NSW  (no significant weather)
Text: BECMG 2607/2609 SCT040CB
Forecast period: 0700 to 1200 UTC 26 June 2022
Forecast type: BECOMING: Conditions expected to become as follows by 0900 UTC 26 June 2022
Winds: variable direction winds at 5 MPH (4 knots; 2.1 m/s)
Visibility: 6 or more miles (10+ km)
Ceiling: at least 12,000 feet AGL
Clouds: scattered clouds at 4000 feet AGL
Weather: NSW  (no significant weather)
Text: TEMPO 2609/2612 5000 -TSRA
Forecast period: 0900 to 1200 UTC 26 June 2022
Forecast type: TEMPORARY: The following changes expected for less than half the time period
Visibility: 3 miles (5 km)
Ceiling: unknown
Clouds: missing
Weather: -TSRA  (light rain associated with thunderstorm(s))

 FLUGHAFENKARTE

 RUNWAY INFORMATION
Runway 15 Runway length 5841 ft Runway width 98 ft
Runway elevation 397 ft Runway displaced threshold 0 ft Runway heading 154
Runway 33 Runway length 5841 ft Runway width 98 ft
Runway elevation 340 ft Runway displaced threshold 0 ft Runway heading 334

 AIRPORT FREQUENCIES
Type APP Name APP Frequency 119.2 MHZ
Type GCA Name PRECISION Frequency 118.8 MHZ
Type TWR Name TWR Frequency 119.2 MHZ

 AIRPORT NEAR NAVIGATION AIDS
Type NDB Name Iasi Frequency 391 KHZ